createdAt,value
2019-03-27T00:03:35.972Z,97863.23
2019-03-27T00:08:40.712Z,97860.54
2019-03-27T00:13:45.352Z,97860.14
2019-03-27T00:18:49.993Z,97862.75
2019-03-27T00:23:54.737Z,97864.63
2019-03-27T00:28:59.370Z,97865.59
2019-03-27T00:34:04.127Z,97862.66
2019-03-27T00:39:08.751Z,97857.14
2019-03-27T00:44:13.396Z,97863.33
2019-03-27T00:49:18.144Z,97863.73
2019-03-27T00:54:22.786Z,97864.87
2019-03-27T00:59:27.427Z,97865.38
2019-03-27T01:04:34.635Z,97871.92
2019-03-27T01:09:39.372Z,97876.07
2019-03-27T01:14:44.111Z,97869.31
2019-03-27T01:19:48.751Z,97879.04
2019-03-27T01:24:53.290Z,97877.52
2019-03-27T01:29:57.822Z,97870.14
2019-03-27T01:35:02.573Z,97876.45
2019-03-27T01:40:07.309Z,97876.14
2019-03-27T01:45:13.198Z,97879.32
2019-03-27T01:50:17.822Z,97887.45
2019-03-27T01:55:22.573Z,97884.28
2019-03-27T02:00:27.208Z,97888.03
2019-03-27T02:05:31.952Z,97891.09
2019-03-27T02:10:36.694Z,97895.73
2019-03-27T02:15:41.443Z,97900.91
2019-03-27T02:20:46.133Z,97904.70
2019-03-27T02:25:51.950Z,97918.46
2019-03-27T02:30:56.693Z,97915.48
2019-03-27T02:36:01.349Z,97913.25
2019-03-27T02:41:05.972Z,97921.29
2019-03-27T02:46:23.621Z,97936.93
2019-03-27T02:51:17.097Z,97940.61
2019-03-27T02:56:21.838Z,97942.21
2019-03-27T03:01:26.575Z,97958.25
2019-03-27T03:06:31.325Z,97966.73
2019-03-27T03:11:36.070Z,97974.20
2019-03-27T03:16:42.557Z,97974.84
2019-03-27T03:21:46.990Z,97967.34
2019-03-27T03:26:51.773Z,97968.80
2019-03-27T03:31:57.656Z,97963.17
2019-03-27T03:37:04.089Z,97974.28
2019-03-27T03:42:09.763Z,97969.52
2019-03-27T03:47:14.489Z,97978.16
2019-03-27T03:52:19.549Z,97982.91
2019-03-27T03:57:24.181Z,98000.67
2019-03-27T04:02:29.030Z,98002.53
2019-03-27T04:07:33.767Z,98003.60
2019-03-27T04:12:38.537Z,98017.44
2019-03-27T04:17:43.255Z,98016.78
2019-03-27T04:22:48.003Z,98021.27
2019-03-27T04:27:53.869Z,98028.35
2019-03-27T04:32:58.859Z,98024.81
2019-03-27T04:38:03.660Z,98026.64
2019-03-27T04:43:08.325Z,98033.59
2019-03-27T04:48:13.040Z,98042.80
2019-03-27T04:53:17.787Z,98042.54
2019-03-27T04:58:22.344Z,98045.73
2019-03-27T05:03:27.065Z,98050.47
2019-03-27T05:08:31.659Z,98057.45
2019-03-27T05:13:36.467Z,98062.78
2019-03-27T05:18:41.190Z,98061.58
2019-03-27T05:23:45.934Z,98069.69
2019-03-27T05:28:50.680Z,98073.48
2019-03-27T05:33:55.269Z,98082.53
2019-03-27T05:39:00.059Z,98086.84
2019-03-27T05:44:04.803Z,98092.01
2019-03-27T05:49:09.649Z,98086.56
2019-03-27T05:54:14.395Z,98099.28
2019-03-27T05:59:19.136Z,98100.20
2019-03-27T06:04:23.878Z,98103.81
2019-03-27T06:09:28.622Z,98100.12
2019-03-27T06:14:33.366Z,98101.73
2019-03-27T06:19:38.206Z,98099.91
2019-03-27T06:24:42.951Z,98105.92
2019-03-27T06:29:47.482Z,98104.39
2019-03-27T06:34:52.231Z,98114.88
2019-03-27T06:39:56.975Z,98118.44
2019-03-27T06:45:01.821Z,98113.38
2019-03-27T06:50:06.668Z,98119.14
2019-03-27T06:55:12.343Z,98120.77
2019-03-27T07:00:18.097Z,98110.75
2019-03-27T07:05:22.840Z,98110.13
2019-03-27T07:10:27.542Z,98104.77
2019-03-27T07:15:35.458Z,98101.09
2019-03-27T07:20:40.965Z,98105.44
2019-03-27T07:25:46.803Z,98113.39
2019-03-27T07:30:51.779Z,98106.77
2019-03-27T07:35:56.424Z,98101.00
2019-03-27T07:41:01.473Z,98092.38
2019-03-27T07:46:06.113Z,98091.55
2019-03-27T07:51:12.602Z,98085.19
2019-03-27T07:56:17.338Z,98092.70
2019-03-27T08:01:22.085Z,98094.91
2019-03-27T08:06:26.824Z,98092.14
2019-03-27T08:11:31.719Z,98101.72
2019-03-27T08:16:36.618Z,98096.55
2019-03-27T08:21:41.362Z,98097.27
2019-03-27T08:26:45.994Z,98096.98
2019-03-27T08:31:50.640Z,98098.82
2019-03-27T08:36:55.513Z,98100.64
2019-03-27T08:42:00.132Z,98096.49
2019-03-27T08:47:04.978Z,98094.10
2019-03-27T08:52:09.620Z,98103.09
2019-03-27T08:57:14.361Z,98093.14
2019-03-27T09:02:19.104Z,98096.08
2019-03-27T09:07:23.851Z,98082.29
2019-03-27T09:12:28.469Z,98088.33
2019-03-27T09:17:33.134Z,98082.60
2019-03-27T09:22:39.409Z,98078.05
2019-03-27T09:27:44.149Z,98073.80
2019-03-27T09:32:48.781Z,98076.33
2019-03-27T09:37:53.534Z,98068.58
2019-03-27T09:42:58.278Z,98061.17
2019-03-27T09:48:03.127Z,98069.66
2019-03-27T09:53:07.877Z,98064.25
2019-03-27T09:58:12.612Z,98056.94
2019-03-27T10:03:17.253Z,98050.66
2019-03-27T10:08:21.895Z,98041.58
2019-03-27T10:13:26.455Z,98046.03
2019-03-27T10:18:31.176Z,98039.36
2019-03-27T10:23:35.815Z,98029.63
2019-03-27T10:28:40.560Z,98011.84
2019-03-27T10:33:45.310Z,98009.17
2019-03-27T10:38:50.050Z,98010.38
2019-03-27T10:43:54.691Z,98017.12
2019-03-27T10:48:59.446Z,98010.30
2019-03-27T10:54:04.176Z,98007.19
2019-03-27T10:59:08.921Z,98001.48
2019-03-27T11:04:13.681Z,97994.70
2019-03-27T11:09:18.404Z,97994.19
2019-03-27T11:14:36.637Z,97984.95
2019-03-27T11:19:29.226Z,97974.23
2019-03-27T11:24:34.996Z,97961.39
2019-03-27T11:29:39.638Z,97959.84
2019-03-27T11:34:44.584Z,97952.69
2019-03-27T11:39:49.209Z,97951.17
2019-03-27T11:44:53.972Z,97957.30
2019-03-27T11:49:58.621Z,97950.47
2019-03-27T11:55:03.366Z,97953.88
2019-03-27T12:00:09.640Z,97940.95
2019-03-27T12:05:14.375Z,97942.86
2019-03-27T12:10:19.224Z,97946.64
2019-03-27T12:15:38.504Z,97929.28
2019-03-27T12:20:43.250Z,97937.48
2019-03-27T12:25:47.995Z,97935.24
2019-03-27T12:30:52.708Z,97928.70
2019-03-27T12:35:57.380Z,97923.24
2019-03-27T12:41:02.123Z,97925.27
2019-03-27T12:46:08.304Z,97927.69
2019-03-27T12:51:13.508Z,97914.47
2019-03-27T12:56:18.296Z,97925.88
2019-03-27T13:01:22.939Z,97921.97
2019-03-27T13:06:27.690Z,97923.52
2019-03-27T13:11:32.328Z,97930.22
2019-03-27T13:16:36.872Z,97929.11
2019-03-27T13:21:43.248Z,97937.63
2019-03-27T13:26:48.089Z,97927.01
2019-03-27T13:31:52.833Z,97931.72
2019-03-27T13:36:58.580Z,97928.50
2019-03-27T13:42:03.250Z,97946.00
2019-03-27T13:47:08.312Z,97936.54
2019-03-27T13:52:14.702Z,97939.78
2019-03-27T13:57:19.518Z,97943.81
2019-03-27T14:02:24.269Z,97949.20
2019-03-27T14:07:28.919Z,97944.43
2019-03-27T14:12:33.755Z,97948.84
2019-03-27T14:17:38.497Z,97950.20
2019-03-27T14:22:43.338Z,97941.91
2019-03-27T14:27:48.081Z,97950.54
2019-03-27T14:32:52.897Z,97954.61
2019-03-27T14:38:00.065Z,97959.83
2019-03-27T14:43:05.284Z,97964.67
2019-03-27T14:48:10.127Z,97964.89
2019-03-27T14:53:14.884Z,97960.25
2019-03-27T14:58:19.518Z,97965.08
2019-03-27T15:03:24.358Z,97967.03
2019-03-27T15:08:29.104Z,97970.55
2019-03-27T15:13:33.830Z,97979.28
2019-03-27T15:18:38.875Z,97973.99
2019-03-27T15:23:43.641Z,97984.23
2019-03-27T15:28:50.797Z,97982.78
2019-03-27T15:33:54.560Z,97992.41
2019-03-27T15:38:59.304Z,97996.50
2019-03-27T15:44:03.950Z,97996.84
2019-03-27T15:49:08.703Z,97998.92
2019-03-27T15:54:13.637Z,98005.16
2019-03-27T15:59:18.503Z,98009.39
2019-03-27T16:04:23.225Z,98016.03
2019-03-27T16:09:27.973Z,98019.65
2019-03-27T16:14:32.721Z,98022.38
2019-03-27T16:19:37.585Z,98031.66
2019-03-27T16:24:42.409Z,98035.02
2019-03-27T16:29:48.339Z,98047.51
2019-03-27T16:34:54.154Z,98062.14
2019-03-27T16:39:58.994Z,98063.64
2019-03-27T16:45:05.172Z,98073.78
2019-03-27T16:50:10.242Z,98081.41
2019-03-27T16:55:14.962Z,98090.56
2019-03-27T17:00:20.734Z,98088.49
2019-03-27T17:05:27.213Z,98093.80
2019-03-27T17:10:31.957Z,98093.45
2019-03-27T17:15:37.178Z,98116.05
2019-03-27T17:20:41.975Z,98122.15
2019-03-27T17:25:46.921Z,98129.88
2019-03-27T17:30:51.760Z,98137.96
2019-03-27T17:35:58.823Z,98147.13
2019-03-27T17:41:05.563Z,98157.55
2019-03-27T17:46:12.360Z,98165.83
2019-03-27T17:51:20.043Z,98176.48
2019-03-27T17:56:27.500Z,98182.56
2019-03-27T18:01:34.361Z,98183.47
2019-03-27T18:06:40.107Z,98187.81
2019-03-27T18:11:45.115Z,98206.53
2019-03-27T18:16:52.238Z,98210.05
2019-03-27T18:22:07.061Z,98210.97
2019-03-27T18:27:04.263Z,98212.38
2019-03-27T18:32:12.887Z,98220.95
2019-03-27T18:37:17.784Z,98230.20
2019-03-27T18:42:22.532Z,98231.38
2019-03-27T18:47:27.272Z,98238.12
2019-03-27T18:52:32.008Z,98239.06
2019-03-27T18:57:36.807Z,98245.20
2019-03-27T19:02:41.495Z,98251.66
2019-03-27T19:07:46.236Z,98250.45
2019-03-27T19:12:51.016Z,98250.24
2019-03-27T19:17:56.039Z,98251.64
2019-03-27T19:23:01.349Z,98255.95
2019-03-27T19:28:06.041Z,98260.25
2019-03-27T19:33:10.778Z,98263.10
2019-03-27T19:38:15.818Z,98260.25
2019-03-27T19:43:20.673Z,98271.86
2019-03-27T19:48:25.453Z,98274.53
2019-03-27T19:53:30.257Z,98287.09
2019-03-27T19:58:34.998Z,98281.45
2019-03-27T20:03:40.664Z,98276.52
2019-03-27T20:08:45.637Z,98279.56
2019-03-27T20:13:51.692Z,98277.63
2019-03-27T20:18:56.507Z,98268.00
2019-03-27T20:24:01.824Z,98276.78
2019-03-27T20:29:06.634Z,98281.91
2019-03-27T20:34:11.380Z,98282.34
2019-03-27T20:39:16.014Z,98296.34
2019-03-27T20:44:20.977Z,98299.16
2019-03-27T20:49:25.605Z,98300.66
2019-03-27T20:54:30.577Z,98308.64
2019-03-27T20:59:35.505Z,98312.98
2019-03-27T21:04:40.342Z,98313.27
2019-03-27T21:09:45.008Z,98313.88
2019-03-27T21:14:49.868Z,98322.53
2019-03-27T21:19:54.882Z,98336.45
2019-03-27T21:25:08.740Z,98335.66
2019-03-27T21:30:08.730Z,98342.95
2019-03-27T21:35:15.559Z,98352.83
2019-03-27T21:40:20.506Z,98347.57
2019-03-27T21:45:25.353Z,98360.45
2019-03-27T21:50:30.230Z,98368.52
2019-03-27T21:55:42.528Z,98369.64
2019-03-27T22:00:41.321Z,98361.92
2019-03-27T22:05:46.192Z,98380.05
2019-03-27T22:10:51.118Z,98375.88
2019-03-27T22:15:55.752Z,98384.94
2019-03-27T22:21:00.653Z,98386.88
2019-03-27T22:26:05.443Z,98390.73
2019-03-27T22:31:10.302Z,98385.47
2019-03-27T22:36:15.036Z,98387.52
2019-03-27T22:41:19.884Z,98392.57
2019-03-27T22:46:24.576Z,98390.65
2019-03-27T22:51:29.256Z,98398.20
2019-03-27T22:56:34.002Z,98409.51
2019-03-27T23:01:45.276Z,98410.66
2019-03-27T23:06:50.143Z,98404.14
2019-03-27T23:11:54.989Z,98404.55
2019-03-27T23:16:59.907Z,98400.70
2019-03-27T23:22:04.783Z,98399.78
2019-03-27T23:27:09.520Z,98395.64
2019-03-27T23:32:14.373Z,98400.60
2019-03-27T23:37:19.112Z,98404.84
2019-03-27T23:42:24.013Z,98403.08
2019-03-27T23:47:28.694Z,98397.80
2019-03-27T23:52:33.643Z,98394.71
2019-03-27T23:57:38.282Z,98394.17
